Desert Spring — V7XQ8 — position and weather

sailwx.info

Track history (hours):
 
Tides and Currents Weather Stations Pressure Air Temp Water Temp Dewpoint Dewpoint Depression Visibility Wind Speed Wind Dir Waves Ship Positions

Desert Spring

Last reported at 2018-Apr-23 11:12 UTC. Time now 2018-Apr-26 02:07 UTC.
Position N 11°25' W 019°56'.

Length 193 m; draft 11.8 m.

Type: Cargo ship. MMSI: 538004547.

Date/timePositionNaut miles runAvg speedWind from/ knotsBaromVisibWave heightAir tempDewpointWater temp
2018-Apr-23 11:12N 11°25' W 019°56'17 9.4
2018-Apr-23 09:25N 11°15' W 019°42'57 9.6
2018-Apr-23 03:25N 10°37' W 018°58'4510.0
2018-Apr-22 22:56N 10°07' W 018°24'510.3
2018-Apr-22 22:27N 10°04' W 018°20'510.1
2018-Apr-22 21:59N 10°01' W 018°17'510.0
2018-Apr-22 21:30N 09°58' W 018°13'47 9.9
2018-Apr-22 16:45N 09°26' W 017°38'34 9.7
2018-Apr-22 13:16N 09°04' W 017°12'310.0
2018-Apr-22 13:00N 09°02' W 017°10'510.0
2018-Apr-22 12:30N 08°59' W 017°07'610.0
2018-Apr-22 11:53N 08°54' W 017°02'4 9.9
2018-Apr-22 11:30N 08°52' W 016°59'510.2
2018-Apr-22 11:00N 08°49' W 016°55'63 9.9
2018-Apr-22 04:42N 08°07' W 016°08'210.2
2018-Apr-22 04:30N 08°06' W 016°07'1810.1
2018-Apr-22 02:41N 07°55' W 015°51'210.3
2018-Apr-22 02:30N 07°54' W 015°50'2110.5
2018-Apr-22 00:33N 07°44' W 015°32'110.4
2018-Apr-22 00:28N 07°44' W 015°31'510.6
2018-Apr-22 00:00N 07°41' W 015°27'2510.6
2018-Apr-21 21:40N 07°29' W 015°05'210.8
2018-Apr-21 21:29N 07°28' W 015°03'1010.8
2018-Apr-21 20:33N 07°23' W 014°54'110.8
2018-Apr-21 20:29N 07°23' W 014°54'710.8
2018-Apr-21 19:52N 07°20' W 014°48'410.7
2018-Apr-21 19:30N 07°18' W 014°45'710.8
2018-Apr-21 18:53N 07°14' W 014°39'1211.0
2018-Apr-21 17:46N 07°09' W 014°28'1410.6
2018-Apr-21 16:26N 07°02' W 014°16'  
Track history (hours):
 
Tides and Currents Weather Stations Pressure Air Temp Water Temp Dewpoint Dewpoint Depression Visibility Wind Speed Wind Dir Waves Ship Positions

Desert Spring

Last reported at 2018-Apr-23 11:12 UTC. Time now 2018-Apr-26 02:08 UTC.
Position N 11°25' W 019°56'.

Length 193 m; draft 11.8 m.

Type: Cargo ship. MMSI: 538004547.

Date/timePositionNaut miles runAvg speedWind from/ knotsBaromVisibWave heightAir tempDewpointWater temp
2018-Apr-23 11:12N 11°25' W 019°56'17 9.4
2018-Apr-23 09:25N 11°15' W 019°42'57 9.6
2018-Apr-23 03:25N 10°37' W 018°58'4510.0
2018-Apr-22 22:56N 10°07' W 018°24'510.3
2018-Apr-22 22:27N 10°04' W 018°20'510.1
2018-Apr-22 21:59N 10°01' W 018°17'510.0
2018-Apr-22 21:30N 09°58' W 018°13'47 9.9
2018-Apr-22 16:45N 09°26' W 017°38'34 9.7
2018-Apr-22 13:16N 09°04' W 017°12'310.0
2018-Apr-22 13:00N 09°02' W 017°10'510.0
2018-Apr-22 12:30N 08°59' W 017°07'610.0
2018-Apr-22 11:53N 08°54' W 017°02'4 9.9
2018-Apr-22 11:30N 08°52' W 016°59'510.2
2018-Apr-22 11:00N 08°49' W 016°55'63 9.9
2018-Apr-22 04:42N 08°07' W 016°08'210.2
2018-Apr-22 04:30N 08°06' W 016°07'1810.1
2018-Apr-22 02:41N 07°55' W 015°51'210.3
2018-Apr-22 02:30N 07°54' W 015°50'2110.5
2018-Apr-22 00:33N 07°44' W 015°32'110.4
2018-Apr-22 00:28N 07°44' W 015°31'510.6
2018-Apr-22 00:00N 07°41' W 015°27'2510.6
2018-Apr-21 21:40N 07°29' W 015°05'210.8
2018-Apr-21 21:29N 07°28' W 015°03'1010.8
2018-Apr-21 20:33N 07°23' W 014°54'110.8
2018-Apr-21 20:29N 07°23' W 014°54'710.8
2018-Apr-21 19:52N 07°20' W 014°48'410.7
2018-Apr-21 19:30N 07°18' W 014°45'710.8
2018-Apr-21 18:53N 07°14' W 014°39'1211.0
2018-Apr-21 17:46N 07°09' W 014°28'1410.6
2018-Apr-21 16:26N 07°02' W 014°16'  

Dump ship's entire track history